Time;durP1;ratioP1;P1;durP2;ratioP2;P2;SDS_P1;SDS_P2;PMS_P1;PMS_P2;Temp;Humidity;BMP_temperature;BMP_pressure;BME280_temperature;BME280_humidity;BME280_pressure;Samples;Min_cycle;Max_cycle;Signal;HPM_P1;HPM_P2
2021/03/11 00:00:25;;;;;;;75.18;36.00;;;;;;;;;;5040939;28;20075;-76
2021/03/11 00:02:52;;;;;;;88.88;39.67;;;;;;;;;;5044607;28;20049;-76
2021/03/11 00:05:19;;;;;;;88.57;38.33;;;;;;;;;;5043737;28;20048;-76
2021/03/11 00:07:46;;;;;;;110.55;42.38;;;;;;;;;;5046183;28;20419;-75
2021/03/11 00:10:13;;;;;;;106.38;42.13;;;;;;;;;;5046673;28;20056;-76
2021/03/11 00:12:40;;;;;;;97.90;41.30;;;;;;;;;;5039014;28;20090;-76
2021/03/11 00:15:08;;;;;;;89.38;40.55;;;;;;;;;;5038628;28;20041;-75
2021/03/11 00:17:34;;;;;;;96.88;42.33;;;;;;;;;;5037945;28;20048;-76
2021/03/11 00:20:01;;;;;;;90.75;40.67;;;;;;;;;;5034712;28;20045;-76
2021/03/11 00:22:27;;;;;;;82.90;39.80;;;;;;;;;;5039079;28;20099;-76
2021/03/11 00:24:53;;;;;;;106.10;43.92;;;;;;;;;;5041862;28;20441;-76
2021/03/11 00:27:20;;;;;;;83.47;39.63;;;;;;;;;;5041989;28;20124;-75
2021/03/11 00:29:46;;;;;;;103.18;42.58;;;;;;;;;;5042981;28;20051;-76
2021/03/11 00:32:12;;;;;;;88.30;40.50;;;;;;;;;;5041151;28;20064;-75
2021/03/11 00:34:39;;;;;;;101.72;44.65;;;;;;;;;;5043881;28;20484;-77
2021/03/11 00:37:05;;;;;;;85.35;37.85;;;;;;;;;;5038082;28;20488;-76
2021/03/11 00:39:31;;;;;;;99.32;41.78;;;;;;;;;;5044917;28;20040;-76
2021/03/11 00:41:58;;;;;;;91.03;39.92;;;;;;;;;;5045194;28;20435;-76
2021/03/11 00:44:24;;;;;;;96.78;41.13;;;;;;;;;;5037243;28;20053;-76
2021/03/11 00:46:50;;;;;;;89.97;39.40;;;;;;;;;;5038119;28;20073;-76
2021/03/11 00:49:17;;;;;;;91.53;41.83;;;;;;;;;;5038234;28;20060;-76
2021/03/11 00:51:43;;;;;;;87.93;38.63;;;;;;;;;;5035563;28;20044;-76
2021/03/11 00:54:10;;;;;;;89.63;40.28;;;;;;;;;;5044286;28;20041;-76
2021/03/11 00:56:36;;;;;;;83.95;37.80;;;;;;;;;;5040327;28;20115;-76
2021/03/11 00:59:03;;;;;;;82.68;38.03;;;;;;;;;;5043975;28;20063;-76
2021/03/11 01:01:30;;;;;;;85.97;36.83;;;;;;;;;;5040591;28;20136;-75
2021/03/11 01:03:56;;;;;;;86.90;39.83;;;;;;;;;;5044530;28;20052;-77
2021/03/11 01:06:23;;;;;;;83.28;39.33;;;;;;;;;;5046748;28;20411;-75
2021/03/11 01:08:49;;;;;;;78.20;37.75;;;;;;;;;;5045552;28;20128;-77
2021/03/11 01:11:18;;;;;;;92.88;40.80;;;;;;;;;;5040126;28;20151;-76
2021/03/11 01:13:44;;;;;;;78.40;35.95;;;;;;;;;;5053419;28;20044;-75
2021/03/11 01:16:11;;;;;;;95.28;40.58;;;;;;;;;;5031064;28;20048;-76
2021/03/11 01:18:37;;;;;;;84.93;38.58;;;;;;;;;;5039641;28;20378;-76
2021/03/11 01:21:04;;;;;;;75.15;35.70;;;;;;;;;;5040069;28;20068;-75
2021/03/11 01:23:30;;;;;;;88.45;36.20;;;;;;;;;;5040701;28;20088;-76
2021/03/11 01:25:56;;;;;;;93.97;40.38;;;;;;;;;;5041430;28;20098;-76
2021/03/11 01:28:22;;;;;;;84.47;35.95;;;;;;;;;;5040403;28;20114;-76
2021/03/11 01:30:49;;;;;;;91.22;38.58;;;;;;;;;;5040721;28;20199;-76
2021/03/11 01:33:15;;;;;;;79.72;36.20;;;;;;;;;;5040866;28;20040;-76
2021/03/11 01:35:41;;;;;;;79.22;35.38;;;;;;;;;;5043302;28;20052;-76
2021/03/11 01:38:08;;;;;;;83.13;34.30;;;;;;;;;;5028431;28;20141;-76
2021/03/11 01:40:34;;;;;;;80.20;35.05;;;;;;;;;;5032582;28;20128;-75
2021/03/11 01:43:01;;;;;;;77.22;35.80;;;;;;;;;;5032716;28;20554;-76
2021/03/11 01:45:28;;;;;;;87.43;37.65;;;;;;;;;;5040854;28;20040;-76
2021/03/11 01:47:54;;;;;;;77.15;36.03;;;;;;;;;;5038166;28;20037;-77
2021/03/11 01:50:20;;;;;;;78.25;35.30;;;;;;;;;;5037947;28;20053;-76
2021/03/11 01:52:47;;;;;;;87.53;38.30;;;;;;;;;;5043097;28;20045;-77
2021/03/11 01:55:14;;;;;;;79.18;36.13;;;;;;;;;;5043644;28;20041;-76
2021/03/11 01:57:40;;;;;;;74.18;35.05;;;;;;;;;;5044974;28;20467;-76
2021/03/11 02:00:09;;;;;;;79.03;33.47;;;;;;;;;;5050412;28;20385;-77
2021/03/11 02:02:36;;;;;;;80.65;36.85;;;;;;;;;;5044660;28;20052;-77
2021/03/11 02:05:05;;;;;;;63.65;33.28;;;;;;;;;;5043014;28;20037;-76
2021/03/11 02:07:31;;;;;;;67.15;31.33;;;;;;;;;;5051648;28;20045;-77
2021/03/11 02:09:57;;;;;;;67.80;32.75;;;;;;;;;;5042317;28;20046;-77
2021/03/11 02:12:28;;;;;;;62.42;31.13;;;;;;;;;;5046463;28;20045;-77
2021/03/11 02:15:00;;;;;;;61.80;31.08;;;;;;;;;;5046331;28;20098;-77
2021/03/11 02:17:30;;;;;;;73.30;33.20;;;;;;;;;;5040496;28;20048;-76
2021/03/11 02:20:13;;;;;;;68.30;34.67;;;;;;;;;;5044979;28;20041;-76
2021/03/11 02:22:53;;;;;;;69.63;34.50;;;;;;;;;;5041591;28;20512;-75
2021/03/11 02:25:34;;;;;;;63.05;32.22;;;;;;;;;;5045863;28;20495;-76
2021/03/11 02:28:13;;;;;;;62.05;30.88;;;;;;;;;;5047928;28;20106;-77
2021/03/11 02:30:40;;;;;;;70.13;33.17;;;;;;;;;;5042188;28;20083;-76
2021/03/11 02:33:08;;;;;;;73.85;35.25;;;;;;;;;;5042161;28;20119;-76
2021/03/11 02:35:36;;;;;;;70.78;36.33;;;;;;;;;;5050176;28;20137;-76
2021/03/11 02:38:03;;;;;;;76.00;36.58;;;;;;;;;;5036495;28;20049;-76
2021/03/11 02:40:31;;;;;;;62.35;31.50;;;;;;;;;;5038901;28;20057;-77
2021/03/11 02:42:58;;;;;;;60.88;32.28;;;;;;;;;;5050953;28;20074;-77
2021/03/11 02:45:26;;;;;;;71.85;34.72;;;;;;;;;;5046117;28;20065;-77
2021/03/11 02:47:53;;;;;;;63.95;35.28;;;;;;;;;;5042574;28;20048;-77
2021/03/11 02:50:20;;;;;;;60.65;32.17;;;;;;;;;;5043074;28;20037;-77
2021/03/11 02:52:46;;;;;;;66.55;32.47;;;;;;;;;;5040747;28;20098;-76
2021/03/11 02:55:13;;;;;;;63.92;34.47;;;;;;;;;;5036871;28;20053;-77
2021/03/11 02:57:40;;;;;;;65.35;33.72;;;;;;;;;;5033752;28;20041;-77
2021/03/11 03:00:08;;;;;;;67.97;35.03;;;;;;;;;;5041155;28;20130;-77
2021/03/11 03:02:35;;;;;;;65.95;35.13;;;;;;;;;;5044011;28;20048;-77
2021/03/11 03:05:02;;;;;;;70.15;34.58;;;;;;;;;;5046219;28;20037;-77
2021/03/11 03:07:28;;;;;;;66.57;32.30;;;;;;;;;;5042891;28;20072;-76
2021/03/11 03:09:56;;;;;;;58.22;30.60;;;;;;;;;;5060140;28;20033;-77
2021/03/11 03:12:23;;;;;;;70.00;36.17;;;;;;;;;;5043888;28;20045;-77
2021/03/11 03:14:50;;;;;;;64.22;36.25;;;;;;;;;;5044095;28;20069;-76
2021/03/11 03:17:17;;;;;;;61.63;33.42;;;;;;;;;;5038627;28;20471;-77
2021/03/11 03:19:45;;;;;;;64.28;33.17;;;;;;;;;;5040592;28;20041;-77
2021/03/11 03:22:12;;;;;;;58.53;33.20;;;;;;;;;;5041952;28;20124;-77
2021/03/11 03:24:38;;;;;;;62.70;33.97;;;;;;;;;;5039119;28;20033;-76
2021/03/11 03:27:05;;;;;;;62.95;33.92;;;;;;;;;;5041771;28;20404;-77
2021/03/11 03:29:31;;;;;;;58.75;31.90;;;;;;;;;;5041680;28;20119;-76
2021/03/11 03:31:58;;;;;;;62.53;35.65;;;;;;;;;;5043343;28;20045;-77
2021/03/11 03:34:24;;;;;;;60.35;32.35;;;;;;;;;;5047100;28;20033;-76
2021/03/11 03:36:50;;;;;;;66.97;34.85;;;;;;;;;;5042170;28;20111;-77
2021/03/11 03:39:17;;;;;;;67.30;35.33;;;;;;;;;;5037902;28;20045;-77
2021/03/11 03:41:47;;;;;;;64.50;34.47;;;;;;;;;;5026962;28;20834;-77
2021/03/11 03:44:13;;;;;;;69.20;35.85;;;;;;;;;;5038149;28;20162;-76
2021/03/11 03:46:40;;;;;;;52.13;31.10;;;;;;;;;;5034432;28;20037;-77
2021/03/11 03:49:08;;;;;;;64.43;34.53;;;;;;;;;;5039467;28;20045;-76
2021/03/11 03:51:36;;;;;;;65.45;36.17;;;;;;;;;;5041365;28;20068;-76
2021/03/11 03:54:07;;;;;;;56.92;32.47;;;;;;;;;;5045462;28;20834;-77
2021/03/11 03:56:42;;;;;;;60.95;33.35;;;;;;;;;;5040642;28;20523;-76
2021/03/11 03:59:10;;;;;;;59.47;31.20;;;;;;;;;;5036646;28;20139;-76
2021/03/11 04:01:39;;;;;;;60.55;32.25;;;;;;;;;;5045873;28;20072;-77
2021/03/11 04:04:07;;;;;;;63.58;34.15;;;;;;;;;;5035883;28;20049;-76
2021/03/11 04:06:35;;;;;;;65.90;36.03;;;;;;;;;;5035964;28;20120;-77
2021/03/11 04:09:03;;;;;;;57.30;32.63;;;;;;;;;;5039992;28;20812;-77
2021/03/11 04:11:30;;;;;;;60.03;32.45;;;;;;;;;;5036943;28;20408;-77
2021/03/11 04:13:57;;;;;;;54.53;33.28;;;;;;;;;;5039083;28;20037;-76
2021/03/11 04:16:24;;;;;;;52.88;32.30;;;;;;;;;;5039390;28;20037;-77
2021/03/11 04:18:52;;;;;;;51.65;29.02;;;;;;;;;;5045955;28;20381;-77
2021/03/11 04:21:19;;;;;;;50.95;31.00;;;;;;;;;;5043854;28;20056;-78
2021/03/11 04:23:47;;;;;;;53.30;30.58;;;;;;;;;;5044284;28;21129;-77
2021/03/11 04:26:13;;;;;;;49.85;30.30;;;;;;;;;;5037331;28;20067;-77
2021/03/11 04:28:40;;;;;;;45.47;29.10;;;;;;;;;;5044098;28;20412;-77
2021/03/11 04:31:07;;;;;;;43.90;26.67;;;;;;;;;;5046656;28;20064;-77
2021/03/11 04:33:33;;;;;;;47.72;30.52;;;;;;;;;;5042789;28;20073;-76
2021/03/11 04:36:00;;;;;;;45.20;27.13;;;;;;;;;;5036873;28;20131;-76
2021/03/11 04:38:27;;;;;;;44.60;26.23;;;;;;;;;;5042099;28;20140;-77
2021/03/11 04:40:54;;;;;;;41.78;25.52;;;;;;;;;;5040288;28;20111;-77
2021/03/11 04:43:20;;;;;;;37.10;23.75;;;;;;;;;;5031675;28;20048;-77
2021/03/11 04:45:48;;;;;;;42.10;25.85;;;;;;;;;;5036145;28;20041;-76
2021/03/11 04:48:14;;;;;;;42.30;23.40;;;;;;;;;;5041972;28;20041;-77
2021/03/11 04:50:42;;;;;;;39.10;22.70;;;;;;;;;;5045135;28;20136;-77
2021/03/11 04:53:08;;;;;;;31.70;21.77;;;;;;;;;;5041368;28;20234;-77
2021/03/11 04:55:35;;;;;;;38.17;24.17;;;;;;;;;;5037245;28;20095;-77
2021/03/11 04:58:02;;;;;;;42.63;23.65;;;;;;;;;;5042129;28;20143;-77
2021/03/11 05:00:28;;;;;;;35.17;21.88;;;;;;;;;;5040323;28;20041;-77
2021/03/11 05:02:56;;;;;;;40.10;24.38;;;;;;;;;;5040503;28;20049;-77
2021/03/11 05:05:32;;;;;;;33.20;22.45;;;;;;;;;;5039709;28;20127;-76
2021/03/11 05:07:58;;;;;;;34.67;21.80;;;;;;;;;;5040877;28;20041;-78
2021/03/11 05:10:24;;;;;;;34.75;21.88;;;;;;;;;;5041394;28;20043;-77
2021/03/11 05:12:51;;;;;;;33.80;21.55;;;;;;;;;;5041004;28;20139;-77
2021/03/11 05:15:17;;;;;;;34.72;22.27;;;;;;;;;;5041271;28;20132;-77
2021/03/11 05:17:43;;;;;;;33.78;20.65;;;;;;;;;;5042581;28;20072;-77
2021/03/11 05:20:10;;;;;;;36.33;21.70;;;;;;;;;;5040327;28;20071;-77
2021/03/11 05:22:36;;;;;;;40.28;21.40;;;;;;;;;;5044354;28;20551;-76
2021/03/11 05:25:03;;;;;;;37.53;22.45;;;;;;;;;;5044187;28;20051;-77
2021/03/11 05:27:29;;;;;;;35.50;21.70;;;;;;;;;;5035974;28;20069;-76
2021/03/11 05:29:55;;;;;;;38.70;21.92;;;;;;;;;;5040527;28;20041;-77
2021/03/11 05:32:22;;;;;;;37.95;21.27;;;;;;;;;;5041242;28;20068;-77
2021/03/11 05:34:48;;;;;;;35.95;19.48;;;;;;;;;;5036675;28;20495;-76
2021/03/11 05:37:14;;;;;;;32.55;18.38;;;;;;;;;;5041624;28;20047;-77
2021/03/11 05:39:41;;;;;;;30.58;17.30;;;;;;;;;;5046088;28;20081;-76
2021/03/11 05:42:09;;;;;;;29.45;16.85;;;;;;;;;;5039853;28;20073;-76
2021/03/11 05:44:38;;;;;;;31.30;15.77;;;;;;;;;;5043766;28;20067;-78
2021/03/11 05:47:05;;;;;;;30.45;18.75;;;;;;;;;;5046600;28;20041;-78
2021/03/11 05:49:33;;;;;;;30.13;17.50;;;;;;;;;;5045552;28;20182;-78
2021/03/11 05:51:59;;;;;;;34.63;17.60;;;;;;;;;;5054825;28;20405;-76
2021/03/11 05:54:26;;;;;;;25.33;15.13;;;;;;;;;;5050871;28;20052;-80
2021/03/11 05:56:52;;;;;;;28.23;15.55;;;;;;;;;;5047849;28;20045;-80
2021/03/11 05:59:18;;;;;;;25.63;14.20;;;;;;;;;;5055158;28;20047;-80
2021/03/11 06:01:45;;;;;;;29.52;15.70;;;;;;;;;;5053360;28;20076;-80
2021/03/11 06:04:15;;;;;;;34.85;15.68;;;;;;;;;;5051302;28;20076;-80
2021/03/11 06:06:41;;;;;;;33.50;16.58;;;;;;;;;;5055941;28;20496;-73
2021/03/11 06:09:08;;;;;;;29.13;16.60;;;;;;;;;;5053482;28;20055;-77
2021/03/11 06:11:35;;;;;;;32.25;16.38;;;;;;;;;;5039918;28;20041;-76
2021/03/11 06:14:02;;;;;;;32.20;17.33;;;;;;;;;;5055513;28;20480;-76
2021/03/11 06:16:31;;;;;;;28.80;15.88;;;;;;;;;;5046837;28;20433;-76
2021/03/11 06:18:58;;;;;;;30.38;16.25;;;;;;;;;;5043050;28;20064;-76
2021/03/11 06:21:24;;;;;;;30.35;16.77;;;;;;;;;;5053946;28;20076;-77
2021/03/11 06:23:51;;;;;;;29.30;15.98;;;;;;;;;;5053689;28;20053;-75
2021/03/11 06:26:17;;;;;;;32.25;15.55;;;;;;;;;;5046190;28;20060;-75
2021/03/11 06:28:44;;;;;;;26.48;13.52;;;;;;;;;;5042488;28;20072;-75
2021/03/11 06:31:19;;;;;;;25.48;13.18;;;;;;;;;;5037913;28;20103;-75
2021/03/11 06:33:47;;;;;;;29.63;15.48;;;;;;;;;;5037668;28;20053;-76
2021/03/11 06:36:14;;;;;;;24.98;13.90;;;;;;;;;;5040771;28;20140;-77
2021/03/11 06:38:40;;;;;;;36.20;17.48;;;;;;;;;;5039906;28;20037;-76
2021/03/11 06:41:07;;;;;;;24.90;14.10;;;;;;;;;;5044806;28;20045;-76
2021/03/11 06:43:33;;;;;;;35.78;16.20;;;;;;;;;;5046269;28;20445;-79
2021/03/11 06:46:09;;;;;;;27.30;13.70;;;;;;;;;;5046304;28;20038;-79
2021/03/11 06:48:35;;;;;;;37.20;15.40;;;;;;;;;;5044960;28;20496;-80
2021/03/11 06:51:02;;;;;;;27.98;14.60;;;;;;;;;;5041839;28;20053;-78
2021/03/11 06:53:29;;;;;;;28.10;13.88;;;;;;;;;;5045839;28;20045;-77
2021/03/11 06:56:15;;;;;;;28.67;14.07;;;;;;;;;;5041513;28;20049;-77
2021/03/11 06:58:42;;;;;;;32.03;11.98;;;;;;;;;;5041955;28;20072;-78
2021/03/11 07:01:09;;;;;;;34.60;14.52;;;;;;;;;;5053128;28;20051;-77
2021/03/11 07:03:40;;;;;;;30.35;12.88;;;;;;;;;;5053680;28;20480;-77
2021/03/11 07:06:07;;;;;;;27.27;14.00;;;;;;;;;;5053712;28;20472;-78
2021/03/11 07:08:33;;;;;;;26.83;13.52;;;;;;;;;;5053052;28;20053;-78
2021/03/11 07:11:04;;;;;;;21.45;12.07;;;;;;;;;;5052442;28;20048;-78
2021/03/11 07:13:40;;;;;;;26.00;12.23;;;;;;;;;;5053557;28;20136;-77
2021/03/11 07:16:12;;;;;;;26.58;12.05;;;;;;;;;;5052875;28;20434;-77
2021/03/11 07:18:38;;;;;;;26.25;11.20;;;;;;;;;;5053679;28;20048;-77
2021/03/11 07:21:05;;;;;;;25.83;9.55;;;;;;;;;;5052853;28;20480;-78
2021/03/11 07:23:31;;;;;;;31.90;10.48;;;;;;;;;;5053266;28;20049;-78
2021/03/11 07:25:57;;;;;;;26.75;7.50;;;;;;;;;;5052944;28;20037;-77
2021/03/11 07:28:25;;;;;;;32.38;9.10;;;;;;;;;;5053513;28;20057;-78
2021/03/11 07:30:53;;;;;;;28.55;7.07;;;;;;;;;;5051785;28;20055;-78
2021/03/11 07:33:20;;;;;;;36.05;7.75;;;;;;;;;;5053663;28;20045;-78
2021/03/11 07:35:47;;;;;;;45.35;8.50;;;;;;;;;;5052229;28;20076;-78
2021/03/11 07:38:22;;;;;;;41.53;9.35;;;;;;;;;;5053382;28;20782;-78
2021/03/11 07:40:50;;;;;;;48.92;8.68;;;;;;;;;;5051465;28;20163;-77
2021/03/11 07:43:16;;;;;;;43.20;7.60;;;;;;;;;;5050901;28;20063;-78
2021/03/11 07:45:43;;;;;;;50.45;9.02;;;;;;;;;;5052982;28;20899;-78
2021/03/11 07:48:10;;;;;;;44.83;9.95;;;;;;;;;;5052750;28;20079;-78
2021/03/11 07:50:37;;;;;;;47.65;8.25;;;;;;;;;;5052251;28;20548;-78
2021/03/11 07:53:04;;;;;;;36.33;8.50;;;;;;;;;;5053029;28;20116;-79
2021/03/11 07:55:31;;;;;;;54.67;7.55;;;;;;;;;;5052092;28;20052;-75
2021/03/11 07:57:58;;;;;;;51.78;12.13;;;;;;;;;;5050229;28;20504;-77
2021/03/11 08:00:26;;;;;;;46.83;8.57;;;;;;;;;;5052574;28;20532;-77
2021/03/11 08:03:00;;;;;;;53.75;10.27;;;;;;;;;;5041700;28;20160;-76
2021/03/11 08:05:28;;;;;;;49.88;8.50;;;;;;;;;;5036140;28;20036;-76
2021/03/11 08:08:10;;;;;;;48.67;11.18;;;;;;;;;;5052368;28;20114;-77
2021/03/11 08:10:47;;;;;;;58.05;8.93;;;;;;;;;;5052014;28;20041;-76
2021/03/11 08:13:34;;;;;;;59.30;10.55;;;;;;;;;;5052384;28;20049;-77
2021/03/11 08:16:02;;;;;;;53.90;8.98;;;;;;;;;;5052282;28;20044;-77
2021/03/11 08:18:37;;;;;;;67.38;11.75;;;;;;;;;;5051269;28;20049;-76
2021/03/11 08:21:04;;;;;;;53.42;9.55;;;;;;;;;;5038712;28;20380;-76
2021/03/11 08:23:31;;;;;;;60.28;10.85;;;;;;;;;;5052395;28;20064;-76
2021/03/11 08:25:58;;;;;;;64.03;11.88;;;;;;;;;;5051788;28;20045;-79
2021/03/11 08:28:30;;;;;;;62.13;9.93;;;;;;;;;;5051948;28;20045;-75
2021/03/11 08:30:59;;;;;;;63.78;9.95;;;;;;;;;;5053003;28;20045;-77
2021/03/11 08:33:42;;;;;;;69.70;12.18;;;;;;;;;;5051756;28;20056;-77
2021/03/11 08:36:23;;;;;;;70.80;13.02;;;;;;;;;;5051928;28;20040;-76
2021/03/11 08:38:50;;;;;;;63.22;11.15;;;;;;;;;;5049531;28;20095;-76
2021/03/11 08:41:26;;;;;;;64.28;12.80;;;;;;;;;;5051532;28;20060;-77
2021/03/11 08:43:53;;;;;;;68.43;14.25;;;;;;;;;;5052122;28;20052;-77
2021/03/11 08:46:22;;;;;;;58.65;12.45;;;;;;;;;;5051110;28;20052;-77
2021/03/11 08:48:56;;;;;;;72.50;13.18;;;;;;;;;;5051677;28;20049;-76
2021/03/11 08:51:22;;;;;;;62.50;13.40;;;;;;;;;;5051685;28;20033;-77
2021/03/11 08:53:56;;;;;;;75.30;13.32;;;;;;;;;;5051196;28;20083;-78
2021/03/11 08:56:22;;;;;;;74.38;12.88;;;;;;;;;;5051654;28;20048;-78
2021/03/11 08:58:52;;;;;;;71.85;13.13;;;;;;;;;;5050130;28;20045;-78
2021/03/11 09:01:34;;;;;;;72.40;12.98;;;;;;;;;;5039380;28;20067;-78
2021/03/11 09:04:02;;;;;;;73.32;13.82;;;;;;;;;;5051400;28;20090;-79
2021/03/11 09:06:50;;;;;;;72.13;14.73;;;;;;;;;;5050993;28;20149;-78
2021/03/11 09:09:17;;;;;;;70.20;14.07;;;;;;;;;;5051331;28;20507;-78
2021/03/11 09:11:54;;;;;;;71.25;14.88;;;;;;;;;;5051746;28;20115;-79
2021/03/11 09:14:22;;;;;;;62.05;12.65;;;;;;;;;;5037874;28;20484;-78
2021/03/11 09:16:49;;;;;;;70.15;13.45;;;;;;;;;;5051572;28;20048;-77
2021/03/11 09:19:15;;;;;;;69.70;11.70;;;;;;;;;;5051308;28;20506;-77
2021/03/11 09:21:41;;;;;;;60.92;11.90;;;;;;;;;;5046987;28;20048;-80
2021/03/11 09:24:18;;;;;;;65.15;11.75;;;;;;;;;;5037222;28;20037;-78
2021/03/11 09:26:45;;;;;;;64.93;11.02;;;;;;;;;;5044993;28;20040;-79
2021/03/11 09:29:12;;;;;;;56.00;11.95;;;;;;;;;;5045167;28;20543;-79
2021/03/11 09:31:39;;;;;;;70.15;13.90;;;;;;;;;;5046866;28;20033;-79
2021/03/11 09:34:06;;;;;;;65.47;11.57;;;;;;;;;;5045643;28;20049;-77
2021/03/11 09:36:32;;;;;;;66.28;12.57;;;;;;;;;;5032306;28;20118;-77
2021/03/11 09:39:00;;;;;;;73.30;11.45;;;;;;;;;;5034193;28;20049;-77
2021/03/11 09:41:27;;;;;;;61.38;11.07;;;;;;;;;;5033222;28;20054;-78
2021/03/11 09:43:54;;;;;;;61.78;10.63;;;;;;;;;;5030820;28;20120;-75
2021/03/11 09:46:22;;;;;;;68.00;11.30;;;;;;;;;;5031909;28;20485;-78
2021/03/11 09:48:50;;;;;;;70.18;12.27;;;;;;;;;;5033887;28;20049;-76
2021/03/11 09:51:19;;;;;;;67.80;12.15;;;;;;;;;;5040774;28;20040;-80
2021/03/11 09:53:51;;;;;;;64.15;12.48;;;;;;;;;;5031323;28;20179;-78
2021/03/11 09:56:19;;;;;;;65.90;11.88;;;;;;;;;;5035930;28;20034;-78
2021/03/11 09:58:46;;;;;;;77.55;12.70;;;;;;;;;;5036920;28;20091;-80
2021/03/11 10:01:20;;;;;;;72.45;12.80;;;;;;;;;;5030665;28;20045;-80
2021/03/11 10:03:46;;;;;;;63.15;13.00;;;;;;;;;;5035733;28;20056;-79
2021/03/11 10:06:14;;;;;;;67.25;13.65;;;;;;;;;;5036828;28;20057;-79
2021/03/11 10:08:41;;;;;;;72.25;13.27;;;;;;;;;;5036507;28;20480;-80
2021/03/11 10:11:10;;;;;;;71.03;12.95;;;;;;;;;;5030929;28;20566;-79
2021/03/11 10:13:46;;;;;;;75.57;14.48;;;;;;;;;;5031350;28;20125;-79
2021/03/11 10:16:13;;;;;;;81.95;13.95;;;;;;;;;;5032657;28;20076;-79
2021/03/11 10:18:59;;;;;;;76.13;13.98;;;;;;;;;;5035217;28;20033;-80
2021/03/11 10:21:25;;;;;;;71.95;12.32;;;;;;;;;;5037440;28;20049;-79
2021/03/11 10:23:52;;;;;;;80.18;13.63;;;;;;;;;;5035993;28;20111;-79
2021/03/11 10:26:19;;;;;;;73.75;16.10;;;;;;;;;;5042924;28;20065;-79
2021/03/11 10:28:47;;;;;;;69.68;13.15;;;;;;;;;;5035735;28;20052;-79
2021/03/11 10:31:14;;;;;;;81.13;11.77;;;;;;;;;;5036845;28;20109;-79
2021/03/11 10:33:41;;;;;;;73.32;12.32;;;;;;;;;;5038366;28;20462;-79
2021/03/11 10:36:15;;;;;;;72.63;13.40;;;;;;;;;;5041513;28;20202;-78
2021/03/11 10:38:41;;;;;;;77.45;12.75;;;;;;;;;;5036188;28;20076;-76
2021/03/11 10:41:12;;;;;;;66.55;13.05;;;;;;;;;;5040991;28;20045;-76
2021/03/11 10:43:39;;;;;;;80.63;14.20;;;;;;;;;;5036744;28;20041;-75
2021/03/11 10:46:05;;;;;;;71.00;14.30;;;;;;;;;;5035486;28;20069;-72
2021/03/11 10:48:50;;;;;;;73.38;11.35;;;;;;;;;;5039240;28;20444;-77
2021/03/11 10:51:17;;;;;;;67.85;11.23;;;;;;;;;;5040922;28;20044;-78
2021/03/11 10:53:43;;;;;;;75.53;13.82;;;;;;;;;;5032800;28;20504;-77
2021/03/11 10:56:10;;;;;;;75.05;12.05;;;;;;;;;;5036506;28;20128;-78
2021/03/11 10:58:36;;;;;;;70.53;12.68;;;;;;;;;;5035234;28;20037;-77
2021/03/11 11:01:07;;;;;;;81.38;12.18;;;;;;;;;;5036837;28;20054;-78
2021/03/11 11:03:33;;;;;;;65.38;14.50;;;;;;;;;;5041826;28;20044;-78
2021/03/11 11:06:00;;;;;;;63.28;10.00;;;;;;;;;;5035334;28;20484;-77
2021/03/11 11:08:26;;;;;;;69.40;11.23;;;;;;;;;;5036534;28;20405;-77
2021/03/11 11:10:53;;;;;;;61.80;10.68;;;;;;;;;;5038234;28;20128;-78
2021/03/11 11:13:19;;;;;;;71.97;11.93;;;;;;;;;;5036218;28;20045;-78
2021/03/11 11:15:45;;;;;;;60.60;11.57;;;;;;;;;;5036969;28;20041;-78
2021/03/11 11:18:12;;;;;;;64.15;13.32;;;;;;;;;;5033125;28;20484;-78
2021/03/11 11:20:38;;;;;;;66.47;12.57;;;;;;;;;;5039146;28;20037;-78
2021/03/11 11:23:05;;;;;;;72.50;12.57;;;;;;;;;;5034062;28;20124;-78
2021/03/11 11:25:32;;;;;;;65.75;12.77;;;;;;;;;;5035546;28;20052;-78
2021/03/11 11:27:58;;;;;;;60.08;10.50;;;;;;;;;;5035840;28;20377;-77
2021/03/11 11:30:25;;;;;;;63.05;10.90;;;;;;;;;;5033279;28;20041;-79
2021/03/11 11:32:53;;;;;;;55.33;10.38;;;;;;;;;;5036350;28;20126;-78
2021/03/11 11:35:21;;;;;;;65.72;10.43;;;;;;;;;;5036695;28;20076;-78
2021/03/11 11:37:48;;;;;;;54.25;9.07;;;;;;;;;;5043802;28;20049;-76
2021/03/11 11:40:14;;;;;;;54.70;12.65;;;;;;;;;;5048412;28;20045;-85
2021/03/11 11:42:41;;;;;;;55.22;10.02;;;;;;;;;;5043781;28;20496;-77
2021/03/11 11:45:08;;;;;;;51.90;8.85;;;;;;;;;;5048583;28;20045;-76
2021/03/11 11:47:34;;;;;;;45.85;9.32;;;;;;;;;;5042927;28;20053;-77
2021/03/11 11:50:01;;;;;;;45.38;8.25;;;;;;;;;;5047971;28;20056;-77
2021/03/11 11:52:28;;;;;;;52.35;10.65;;;;;;;;;;5045590;28;20057;-76
2021/03/11 11:54:54;;;;;;;54.60;10.18;;;;;;;;;;5047263;28;20049;-78
2021/03/11 11:57:20;;;;;;;61.25;10.52;;;;;;;;;;5046384;28;20087;-78
2021/03/11 11:59:47;;;;;;;43.08;8.27;;;;;;;;;;5049634;28;20549;-77
2021/03/11 12:02:14;;;;;;;47.20;8.25;;;;;;;;;;5037851;28;20056;-76
2021/03/11 12:04:40;;;;;;;40.42;7.03;;;;;;;;;;5052981;28;20072;-77
2021/03/11 12:07:07;;;;;;;41.60;7.53;;;;;;;;;;5052743;28;20047;-77
2021/03/11 12:09:34;;;;;;;43.65;8.40;;;;;;;;;;5051911;28;20037;-77
2021/03/11 12:12:01;;;;;;;45.47;8.85;;;;;;;;;;5052509;28;20041;-77
2021/03/11 12:14:28;;;;;;;37.95;6.72;;;;;;;;;;5052817;28;20041;-77
2021/03/11 12:16:54;;;;;;;49.80;11.00;;;;;;;;;;5051952;28;20041;-76
2021/03/11 12:19:20;;;;;;;34.28;7.03;;;;;;;;;;5052684;28;20119;-76
2021/03/11 12:21:47;;;;;;;38.85;6.18;;;;;;;;;;5052389;28;20053;-77
2021/03/11 12:24:13;;;;;;;30.08;6.00;;;;;;;;;;5049853;28;20094;-76
2021/03/11 12:26:40;;;;;;;27.75;7.15;;;;;;;;;;5041683;28;20048;-76
2021/03/11 12:29:06;;;;;;;40.67;7.90;;;;;;;;;;5035346;28;20033;-76
2021/03/11 12:31:34;;;;;;;31.15;6.00;;;;;;;;;;5031098;28;20041;-76
2021/03/11 12:34:00;;;;;;;26.05;5.85;;;;;;;;;;5040008;28;20480;-76
2021/03/11 12:36:27;;;;;;;32.45;6.22;;;;;;;;;;5037088;28;20114;-77
2021/03/11 12:38:53;;;;;;;31.27;5.38;;;;;;;;;;5034835;28;20056;-78
2021/03/11 12:41:20;;;;;;;23.25;4.72;;;;;;;;;;5037464;28;20049;-78
2021/03/11 12:43:47;;;;;;;23.42;4.70;;;;;;;;;;5035237;28;20049;-79
2021/03/11 12:46:14;;;;;;;28.13;6.35;;;;;;;;;;5046955;28;20044;-78
2021/03/11 12:48:40;;;;;;;32.63;5.85;;;;;;;;;;5035328;28;20049;-79
2021/03/11 12:51:07;;;;;;;30.33;5.47;;;;;;;;;;5036482;28;20053;-79
2021/03/11 12:53:34;;;;;;;22.23;5.47;;;;;;;;;;5035538;28;20435;-78
2021/03/11 12:56:00;;;;;;;28.85;5.55;;;;;;;;;;5035233;28;20049;-77
2021/03/11 12:58:26;;;;;;;25.02;4.72;;;;;;;;;;5038872;28;20508;-79
2021/03/11 13:00:53;;;;;;;26.13;4.93;;;;;;;;;;5043852;28;20046;-80
2021/03/11 13:03:20;;;;;;;25.35;5.47;;;;;;;;;;5046121;28;20382;-78
2021/03/11 13:05:46;;;;;;;33.63;6.10;;;;;;;;;;5051056;28;20503;-77
2021/03/11 13:08:12;;;;;;;26.40;6.13;;;;;;;;;;5051600;28;20037;-78
2021/03/11 13:10:39;;;;;;;30.05;6.00;;;;;;;;;;5051488;28;20150;-78
2021/03/11 13:13:06;;;;;;;23.30;4.80;;;;;;;;;;5051062;28;20120;-78
2021/03/11 13:15:33;;;;;;;31.80;5.25;;;;;;;;;;5051339;28;20080;-77
2021/03/11 13:17:59;;;;;;;30.67;4.03;;;;;;;;;;5051913;28;20048;-78
2021/03/11 13:20:26;;;;;;;24.50;5.10;;;;;;;;;;5050597;28;20102;-78
2021/03/11 13:22:54;;;;;;;19.33;4.15;;;;;;;;;;5051642;28;20049;-77
2021/03/11 13:25:21;;;;;;;27.58;4.20;;;;;;;;;;5051592;28;20041;-84
2021/03/11 13:27:47;;;;;;;26.23;3.83;;;;;;;;;;5050433;28;20143;-78
2021/03/11 13:30:14;;;;;;;24.70;4.53;;;;;;;;;;5051586;28;20045;-81
2021/03/11 13:32:41;;;;;;;25.80;4.82;;;;;;;;;;5051200;28;20428;-81
2021/03/11 13:35:07;;;;;;;18.67;3.38;;;;;;;;;;5050599;28;20048;-81
2021/03/11 13:37:34;;;;;;;23.08;4.50;;;;;;;;;;5051151;28;20400;-81
2021/03/11 13:40:00;;;;;;;21.45;4.47;;;;;;;;;;5051553;28;20080;-78
2021/03/11 13:42:27;;;;;;;29.10;4.60;;;;;;;;;;5050134;28;20123;-79
2021/03/11 13:44:56;;;;;;;19.58;3.90;;;;;;;;;;5051462;28;20104;-77
2021/03/11 13:47:23;;;;;;;24.92;5.20;;;;;;;;;;5051223;28;20422;-80
2021/03/11 13:49:49;;;;;;;27.65;4.72;;;;;;;;;;5050332;28;20055;-80
2021/03/11 13:52:16;;;;;;;19.00;3.88;;;;;;;;;;5051136;28;20152;-82
2021/03/11 13:54:43;;;;;;;25.45;3.95;;;;;;;;;;5054131;28;20095;-81
2021/03/11 13:57:09;;;;;;;15.68;3.00;;;;;;;;;;5055127;28;20079;-81
2021/03/11 13:59:35;;;;;;;24.50;4.25;;;;;;;;;;5054324;28;20170;-81
2021/03/11 14:02:02;;;;;;;22.83;4.78;;;;;;;;;;5040337;28;20044;-81
2021/03/11 14:04:28;;;;;;;23.20;3.63;;;;;;;;;;5055171;28;20048;-81
2021/03/11 14:06:54;;;;;;;22.42;3.90;;;;;;;;;;5054942;28;20484;-81
2021/03/11 14:09:21;;;;;;;25.67;4.25;;;;;;;;;;5054276;28;20040;-81
2021/03/11 14:11:47;;;;;;;17.48;3.25;;;;;;;;;;5053930;28;20048;-81
2021/03/11 14:14:14;;;;;;;22.63;3.55;;;;;;;;;;5055014;28;20052;-81
2021/03/11 14:16:41;;;;;;;19.95;3.40;;;;;;;;;;5054254;28;20048;-81
2021/03/11 14:19:08;;;;;;;17.58;3.20;;;;;;;;;;5054667;28;20049;-81
2021/03/11 14:21:34;;;;;;;17.02;2.92;;;;;;;;;;5055000;28;20053;-82
2021/03/11 14:24:01;;;;;;;18.60;3.08;;;;;;;;;;5054155;28;20124;-81